createdAt,value
2023-05-02T00:02:17.829Z,98134.02
2023-05-02T00:04:46.894Z,98132.74
2023-05-02T00:07:15.048Z,98131.02
2023-05-02T00:09:43.339Z,98128.52
2023-05-02T00:12:11.701Z,98124.77
2023-05-02T00:14:39.861Z,98126.46
2023-05-02T00:17:08.114Z,98128.91
2023-05-02T00:19:40.283Z,98129.83
2023-05-02T00:22:08.601Z,98131.44
2023-05-02T00:24:36.965Z,98131.62
2023-05-02T00:27:06.282Z,98133.90
2023-05-02T00:29:34.303Z,98136.71
2023-05-02T00:32:02.392Z,98139.88
2023-05-02T00:34:33.952Z,98142.35
2023-05-02T00:37:01.968Z,98142.61
2023-05-02T00:39:30.094Z,98144.55
2023-05-02T00:41:59.496Z,98147.97
2023-05-02T00:44:28.793Z,98152.40
2023-05-02T00:46:57.217Z,98153.04
2023-05-02T00:49:25.354Z,98154.39
2023-05-02T00:51:55.002Z,98157.00
2023-05-02T00:54:23.153Z,98153.80
2023-05-02T00:56:51.900Z,98157.55
2023-05-02T00:59:20.500Z,98161.41
2023-05-02T01:02:10.930Z,98159.54
2023-05-02T01:05:10.797Z,98158.30
2023-05-02T01:08:10.854Z,98160.39
2023-05-02T01:10:53.360Z,98162.05
2023-05-02T01:13:27.293Z,98158.70
2023-05-02T01:15:58.517Z,98158.48
2023-05-02T01:18:32.638Z,98159.58
2023-05-02T01:21:04.748Z,98163.34
2023-05-02T01:24:34.829Z,98163.12
2023-05-02T01:27:05.813Z,98166.87
2023-05-02T01:29:36.410Z,98168.27
2023-05-02T01:32:08.371Z,98163.27
2023-05-02T01:34:40.914Z,98156.48
2023-05-02T01:37:13.049Z,98161.14
2023-05-02T01:39:44.026Z,98166.05
2023-05-02T01:42:13.751Z,98165.29
2023-05-02T01:44:43.379Z,98162.20
2023-05-02T01:47:13.670Z,98164.13
2023-05-02T01:49:44.066Z,98165.31
2023-05-02T01:52:14.174Z,98165.42
2023-05-02T01:54:43.589Z,98169.16
2023-05-02T01:57:13.208Z,98173.29
2023-05-02T01:59:43.893Z,98172.54
2023-05-02T02:02:14.593Z,98172.79
2023-05-02T02:04:46.277Z,98175.05
2023-05-02T02:07:15.088Z,98171.98
2023-05-02T02:09:43.253Z,98171.60
2023-05-02T02:12:35.605Z,98178.02
2023-05-02T02:15:10.455Z,98178.77
2023-05-02T02:17:55.691Z,98185.58
2023-05-02T02:20:23.885Z,98191.40
2023-05-02T02:22:53.544Z,98190.60
2023-05-02T02:25:22.267Z,98188.42
2023-05-02T02:27:52.494Z,98192.66
2023-05-02T02:30:20.882Z,98189.15
2023-05-02T02:32:49.166Z,98187.95
2023-05-02T02:35:17.626Z,98194.22
2023-05-02T02:37:48.677Z,98193.30
2023-05-02T02:40:34.764Z,98197.40
2023-05-02T02:43:28.024Z,98198.36
2023-05-02T02:46:18.134Z,98200.68
2023-05-02T02:49:25.129Z,98201.86
2023-05-02T02:52:15.376Z,98200.19
2023-05-02T02:55:30.110Z,98206.11
2023-05-02T02:58:19.108Z,98209.00
2023-05-02T03:00:48.204Z,98210.38
2023-05-02T03:03:19.024Z,98209.73
2023-05-02T03:05:47.861Z,98203.98
2023-05-02T03:08:16.409Z,98202.11
2023-05-02T03:10:44.678Z,98203.77
2023-05-02T03:13:12.954Z,98211.35
2023-05-02T03:15:53.966Z,98212.31
2023-05-02T03:18:25.577Z,98212.97
2023-05-02T03:20:55.184Z,98217.32
2023-05-02T03:23:23.661Z,98219.84
2023-05-02T03:25:53.093Z,98227.96
2023-05-02T03:28:22.386Z,98229.34
2023-05-02T03:30:50.870Z,98231.60
2023-05-02T03:33:20.487Z,98232.15
2023-05-02T03:35:48.580Z,98231.55
2023-05-02T03:38:16.976Z,98231.09
2023-05-02T03:40:45.706Z,98236.98
2023-05-02T03:43:14.167Z,98244.39
2023-05-02T03:45:42.401Z,98242.73
2023-05-02T03:48:10.893Z,98243.88
2023-05-02T03:50:39.470Z,98246.95
2023-05-02T03:53:09.537Z,98246.24
2023-05-02T03:55:46.564Z,98248.66
2023-05-02T03:58:18.504Z,98250.30
2023-05-02T04:00:47.252Z,98256.13
2023-05-02T04:03:16.673Z,98258.31
2023-05-02T04:05:46.453Z,98259.98
2023-05-02T04:08:17.407Z,98261.06
2023-05-02T04:10:46.288Z,98260.13
2023-05-02T04:13:15.189Z,98258.52
2023-05-02T04:15:46.550Z,98261.66
2023-05-02T04:18:16.904Z,98264.83
2023-05-02T04:20:45.667Z,98263.28
2023-05-02T04:23:16.272Z,98263.64
2023-05-02T04:25:55.051Z,98265.70
2023-05-02T04:28:26.746Z,98271.63
2023-05-02T04:30:56.402Z,98267.52
2023-05-02T04:33:26.198Z,98266.65
2023-05-02T04:35:55.719Z,98268.33
2023-05-02T04:38:24.719Z,98269.33
2023-05-02T04:40:53.137Z,98268.83
2023-05-02T04:43:26.732Z,98266.38
2023-05-02T04:46:01.442Z,98269.98
2023-05-02T04:48:33.849Z,98269.54
2023-05-02T04:51:02.547Z,98262.92
2023-05-02T04:53:32.030Z,98266.19
2023-05-02T04:56:00.204Z,98269.27
2023-05-02T04:58:28.811Z,98265.63
2023-05-02T05:01:03.478Z,98264.62
2023-05-02T05:03:33.463Z,98264.34
2023-05-02T05:06:02.678Z,98266.63
2023-05-02T05:08:31.411Z,98271.16
2023-05-02T05:11:00.911Z,98270.59
2023-05-02T05:13:29.401Z,98270.08
2023-05-02T05:15:57.483Z,98272.34
2023-05-02T05:18:29.226Z,98273.69
2023-05-02T05:20:57.398Z,98278.23
2023-05-02T05:23:25.578Z,98276.71
2023-05-02T05:25:53.744Z,98277.80
2023-05-02T05:28:21.914Z,98280.73
2023-05-02T05:30:51.932Z,98277.69
2023-05-02T05:33:23.398Z,98277.52
2023-05-02T05:35:52.474Z,98272.46
2023-05-02T05:38:20.529Z,98275.60
2023-05-02T05:40:51.378Z,98275.04
2023-05-02T05:43:19.874Z,98276.34
2023-05-02T05:45:48.100Z,98278.48
2023-05-02T05:48:16.541Z,98275.86
2023-05-02T05:50:47.279Z,98275.45
2023-05-02T05:53:16.244Z,98274.88
2023-05-02T05:55:45.876Z,98273.75
2023-05-02T05:58:14.371Z,98278.91
2023-05-02T06:00:43.963Z,98275.90
2023-05-02T06:03:12.511Z,98273.60
2023-05-02T06:05:42.485Z,98269.70
2023-05-02T06:08:10.772Z,98265.36
2023-05-02T06:10:38.939Z,98266.10
2023-05-02T06:13:07.476Z,98265.01
2023-05-02T06:15:39.282Z,98260.31
2023-05-02T06:18:08.241Z,98255.95
2023-05-02T06:20:37.375Z,98258.13
2023-05-02T06:23:05.593Z,98252.58
2023-05-02T06:25:34.174Z,98248.76
2023-05-02T06:28:02.357Z,98251.48
2023-05-02T06:30:30.528Z,98243.58
2023-05-02T06:32:58.633Z,98248.56
2023-05-02T06:35:26.870Z,98249.67
2023-05-02T06:37:55.010Z,98250.98
2023-05-02T06:40:23.078Z,98248.72
2023-05-02T06:42:51.398Z,98242.88
2023-05-02T06:45:19.814Z,98240.07
2023-05-02T06:47:47.905Z,98249.02
2023-05-02T06:50:16.146Z,98251.60
2023-05-02T06:52:44.069Z,98247.27
2023-05-02T06:55:12.279Z,98240.75
2023-05-02T06:57:40.629Z,98241.55
2023-05-02T07:00:09.909Z,98236.91
2023-05-02T07:02:38.139Z,98238.44
2023-05-02T07:05:06.746Z,98240.55
2023-05-02T07:07:35.394Z,98242.79
2023-05-02T07:10:03.939Z,98239.21
2023-05-02T07:12:32.105Z,98236.79
2023-05-02T07:15:00.555Z,98237.05
2023-05-02T07:17:29.182Z,98237.85
2023-05-02T07:19:57.231Z,98230.92
2023-05-02T07:22:25.646Z,98239.23
2023-05-02T07:25:02.646Z,98241.00
2023-05-02T07:27:31.032Z,98251.23
2023-05-02T07:29:59.382Z,98256.59
2023-05-02T07:32:28.085Z,98261.85
2023-05-02T07:34:57.123Z,98250.14
2023-05-02T07:37:25.532Z,98255.68
2023-05-02T07:39:53.827Z,98260.80
2023-05-02T07:42:21.990Z,98257.42
2023-05-02T07:44:50.616Z,98253.24
2023-05-02T07:47:18.872Z,98254.35
2023-05-02T07:49:51.399Z,98252.67
2023-05-02T07:52:20.808Z,98257.39
2023-05-02T07:54:50.055Z,98259.80
2023-05-02T07:57:19.427Z,98251.90
2023-05-02T07:59:48.131Z,98252.64
2023-05-02T08:02:20.101Z,98265.13
2023-05-02T08:04:49.322Z,98266.52
2023-05-02T08:07:17.656Z,98257.31
2023-05-02T08:09:46.348Z,98259.84
2023-05-02T08:12:14.522Z,98258.86
2023-05-02T08:14:42.688Z,98253.10
2023-05-02T08:17:11.182Z,98258.75
2023-05-02T08:19:39.264Z,98265.33
2023-05-02T08:22:07.649Z,98251.81
2023-05-02T08:24:35.811Z,98259.11
2023-05-02T08:27:04.185Z,98260.48
2023-05-02T08:29:33.590Z,98257.80
2023-05-02T08:32:01.982Z,98259.42
2023-05-02T08:34:30.416Z,98255.89
2023-05-02T08:36:58.651Z,98257.36
2023-05-02T08:39:26.850Z,98261.13
2023-05-02T08:41:55.262Z,98253.42
2023-05-02T08:44:23.435Z,98257.04
2023-05-02T08:46:53.524Z,98248.66
2023-05-02T08:49:23.157Z,98239.78
2023-05-02T08:51:52.796Z,98244.42
2023-05-02T08:54:21.905Z,98240.79
2023-05-02T08:56:50.069Z,98241.86
2023-05-02T08:59:18.320Z,98241.42
2023-05-02T09:01:52.834Z,98233.19
2023-05-02T09:04:24.782Z,98235.53
2023-05-02T09:06:53.209Z,98229.64
2023-05-02T09:09:21.562Z,98233.27
2023-05-02T09:11:52.184Z,98235.00
2023-05-02T09:14:20.351Z,98225.16
2023-05-02T09:16:48.669Z,98228.94
2023-05-02T09:19:26.784Z,98219.68
2023-05-02T09:22:01.419Z,98216.73
2023-05-02T09:24:30.048Z,98223.88
2023-05-02T09:27:01.191Z,98226.48
2023-05-02T09:29:35.701Z,98220.35
2023-05-02T09:32:05.791Z,98224.73
2023-05-02T09:34:34.727Z,98205.77
2023-05-02T09:37:05.592Z,98204.91
2023-05-02T09:39:33.673Z,98214.46
2023-05-02T09:42:03.682Z,98223.45
2023-05-02T09:44:39.468Z,98212.30
2023-05-02T09:47:08.713Z,98212.64
2023-05-02T09:49:45.143Z,98210.35
2023-05-02T09:52:15.565Z,98200.63
2023-05-02T09:54:46.779Z,98184.79
2023-05-02T09:57:15.436Z,98190.80
2023-05-02T09:59:55.509Z,98182.67
2023-05-02T10:02:25.254Z,98181.12
2023-05-02T10:04:59.193Z,98178.34
2023-05-02T10:07:28.273Z,98175.67
2023-05-02T10:09:58.836Z,98157.38
2023-05-02T10:12:30.207Z,98151.70
2023-05-02T10:15:04.430Z,98156.68
2023-05-02T10:17:42.365Z,98147.60
2023-05-02T10:20:16.598Z,98147.49
2023-05-02T10:22:47.571Z,98148.84
2023-05-02T10:25:16.309Z,98148.81
2023-05-02T10:27:44.774Z,98137.49
2023-05-02T10:30:14.927Z,98131.34
2023-05-02T10:32:46.210Z,98144.15
2023-05-02T10:35:16.776Z,98124.23
2023-05-02T10:37:46.221Z,98127.14
2023-05-02T10:40:14.899Z,98138.54
2023-05-02T10:42:46.128Z,98146.52
2023-05-02T10:45:32.273Z,98127.75
2023-05-02T10:48:13.699Z,98142.00
2023-05-02T10:50:51.294Z,98138.37
2023-05-02T10:53:26.137Z,98137.31
2023-05-02T10:56:22.408Z,98122.57
2023-05-02T10:59:14.318Z,98121.66
2023-05-02T11:01:43.009Z,98130.36
2023-05-02T11:04:11.740Z,98135.11
2023-05-02T11:07:01.344Z,98125.02
2023-05-02T11:09:29.423Z,98125.48
2023-05-02T11:11:58.267Z,98123.89
2023-05-02T11:14:26.329Z,98129.48
2023-05-02T11:16:57.796Z,98121.73
2023-05-02T11:19:29.184Z,98112.58
2023-05-02T11:22:20.788Z,98118.98
2023-05-02T11:24:50.615Z,98117.81
2023-05-02T11:27:30.952Z,98116.86
2023-05-02T11:30:07.015Z,98110.04
2023-05-02T11:32:48.857Z,98100.21
2023-05-02T11:35:26.266Z,98105.00
2023-05-02T11:37:54.912Z,98104.98
2023-05-02T11:40:23.894Z,98114.88
2023-05-02T11:42:52.170Z,98108.92
2023-05-02T11:45:21.285Z,98102.35
2023-05-02T11:47:51.629Z,98108.83
2023-05-02T11:50:20.176Z,98114.74
2023-05-02T11:52:48.857Z,98094.80
2023-05-02T11:55:17.444Z,98089.86
2023-05-02T11:57:45.592Z,98084.11
2023-05-02T12:00:15.439Z,98076.36
2023-05-02T12:02:45.773Z,98072.31
2023-05-02T12:05:15.110Z,98070.58
2023-05-02T12:07:45.840Z,98082.88
2023-05-02T12:10:14.589Z,98085.50
2023-05-02T12:12:43.593Z,98075.29
2023-05-02T12:15:13.051Z,98084.21
2023-05-02T12:17:43.686Z,98074.05
2023-05-02T12:20:12.802Z,98082.93
2023-05-02T12:22:41.344Z,98079.01
2023-05-02T12:25:09.871Z,98067.11
2023-05-02T12:27:38.501Z,98060.38
2023-05-02T12:30:07.247Z,98062.68
2023-05-02T12:32:38.723Z,98060.80
2023-05-02T12:35:23.242Z,98061.32
2023-05-02T12:37:52.748Z,98061.20
2023-05-02T12:40:21.228Z,98052.59
2023-05-02T12:43:04.019Z,98057.68
2023-05-02T12:45:36.042Z,98052.82
2023-05-02T12:48:27.226Z,98044.30
2023-05-02T12:50:58.491Z,98036.17
2023-05-02T12:53:43.992Z,98047.71
2023-05-02T12:56:13.548Z,98042.89
2023-05-02T12:58:48.282Z,98043.25
2023-05-02T13:01:17.102Z,98033.77
2023-05-02T13:03:45.512Z,98029.73
2023-05-02T13:06:13.871Z,98029.38
2023-05-02T13:08:41.992Z,98032.33
2023-05-02T13:11:10.426Z,98026.62
2023-05-02T13:13:38.753Z,98026.11
2023-05-02T13:16:08.204Z,98032.40
2023-05-02T13:18:36.691Z,98030.24
2023-05-02T13:21:05.421Z,98024.21
2023-05-02T13:23:33.556Z,98021.59
2023-05-02T13:26:01.650Z,98022.92
2023-05-02T13:28:33.473Z,98019.54
2023-05-02T13:31:01.915Z,98013.11
2023-05-02T13:33:30.595Z,98010.02
2023-05-02T13:35:58.631Z,98003.89
2023-05-02T13:38:27.139Z,98003.89
2023-05-02T13:40:55.485Z,97998.74
2023-05-02T13:43:24.434Z,97990.16
2023-05-02T13:45:53.006Z,97981.44
2023-05-02T13:48:21.373Z,97976.35
2023-05-02T13:50:49.463Z,97985.52
2023-05-02T13:53:17.541Z,97989.45
2023-05-02T13:55:45.815Z,97978.55
2023-05-02T13:58:14.051Z,97984.29
2023-05-02T14:00:42.291Z,97986.80
2023-05-02T14:03:11.495Z,97990.23
2023-05-02T14:05:43.931Z,97988.23
2023-05-02T14:08:12.603Z,97988.29
2023-05-02T14:10:40.678Z,97983.76
2023-05-02T14:13:08.994Z,97978.81
2023-05-02T14:15:37.822Z,97963.58
2023-05-02T14:18:06.369Z,97972.58
2023-05-02T14:20:34.648Z,97977.04
2023-05-02T14:23:03.205Z,97966.39
2023-05-02T14:25:32.377Z,97974.77
2023-05-02T14:28:01.805Z,97975.94
2023-05-02T14:30:31.438Z,97966.23
2023-05-02T14:33:00.171Z,97967.55
2023-05-02T14:35:28.547Z,97964.59
2023-05-02T14:37:56.624Z,97962.90
2023-05-02T14:40:24.644Z,97962.70
2023-05-02T14:42:52.833Z,97963.52
2023-05-02T14:45:21.702Z,97965.11
2023-05-02T14:47:50.753Z,97977.36
2023-05-02T14:50:18.986Z,97965.53
2023-05-02T14:52:47.405Z,97962.09
2023-05-02T14:55:16.189Z,97961.17
2023-05-02T14:57:44.409Z,97966.20
2023-05-02T15:00:13.274Z,97964.79
2023-05-02T15:02:41.437Z,97963.43
2023-05-02T15:05:12.175Z,97958.40
2023-05-02T15:07:40.919Z,97957.77
2023-05-02T15:10:09.388Z,97965.58
2023-05-02T15:12:37.820Z,97960.30
2023-05-02T15:15:06.671Z,97961.95
2023-05-02T15:17:35.079Z,97961.82
2023-05-02T15:20:04.589Z,97958.95
2023-05-02T15:22:33.150Z,97963.28
2023-05-02T15:25:03.077Z,97959.14
2023-05-02T15:27:32.772Z,97962.75
2023-05-02T15:30:03.126Z,97957.68
2023-05-02T15:32:31.889Z,97958.73
2023-05-02T15:35:00.602Z,97964.59
2023-05-02T15:37:28.869Z,97959.08
2023-05-02T15:39:57.087Z,97959.45
2023-05-02T15:42:25.216Z,97961.66
2023-05-02T15:44:54.144Z,97963.27
2023-05-02T15:47:22.795Z,97963.88
2023-05-02T15:49:53.995Z,97956.85
2023-05-02T15:52:22.217Z,97950.45
2023-05-02T15:54:51.912Z,97955.02
2023-05-02T15:57:19.986Z,97957.95
2023-05-02T15:59:48.298Z,97956.82
2023-05-02T16:02:16.545Z,97957.23
2023-05-02T16:04:44.708Z,97956.38
2023-05-02T16:07:12.975Z,97961.90
2023-05-02T16:09:42.397Z,97960.84
2023-05-02T16:12:11.256Z,97960.47
2023-05-02T16:14:39.605Z,97964.08
2023-05-02T16:17:07.722Z,97958.27
2023-05-02T16:19:35.911Z,97959.77
2023-05-02T16:22:03.943Z,97955.01
2023-05-02T16:24:32.039Z,97954.58
2023-05-02T16:27:00.884Z,97958.89
2023-05-02T16:29:29.025Z,97952.85
2023-05-02T16:31:57.302Z,97954.44
2023-05-02T16:34:25.968Z,97955.52
2023-05-02T16:36:53.975Z,97957.46
2023-05-02T16:39:22.709Z,97956.92
2023-05-02T16:41:51.105Z,97961.92
2023-05-02T16:44:19.277Z,97957.94
2023-05-02T16:46:47.583Z,97957.68
2023-05-02T16:49:15.853Z,97959.52
2023-05-02T16:51:44.243Z,97956.50
2023-05-02T16:54:12.600Z,97959.17
2023-05-02T16:56:42.447Z,97960.45
2023-05-02T16:59:10.876Z,97962.09
2023-05-02T17:01:38.920Z,97962.28
2023-05-02T17:04:07.682Z,97961.83
2023-05-02T17:06:36.019Z,97960.40
2023-05-02T17:09:04.405Z,97961.34
2023-05-02T17:11:32.668Z,97963.56
2023-05-02T17:14:00.713Z,97967.92
2023-05-02T17:16:29.065Z,97967.55
2023-05-02T17:18:57.306Z,97968.16
2023-05-02T17:21:25.464Z,97968.18
2023-05-02T17:23:54.460Z,97970.60
2023-05-02T17:26:22.635Z,97977.20
2023-05-02T17:28:53.643Z,97977.64
2023-05-02T17:31:22.472Z,97976.39
2023-05-02T17:33:51.142Z,97977.69
2023-05-02T17:36:19.152Z,97980.42
2023-05-02T17:38:47.363Z,97982.94
2023-05-02T17:41:15.514Z,97981.80
2023-05-02T17:43:43.735Z,97984.41
2023-05-02T17:46:11.864Z,97986.55
2023-05-02T17:48:44.585Z,97988.98
2023-05-02T17:51:12.919Z,97988.58
2023-05-02T17:53:42.778Z,97992.67
2023-05-02T17:56:10.955Z,97992.87
2023-05-02T17:58:39.123Z,97996.09
2023-05-02T18:01:08.842Z,97994.23
2023-05-02T18:03:38.117Z,97995.00
2023-05-02T18:06:06.452Z,97994.34
2023-05-02T18:08:34.558Z,97995.95
2023-05-02T18:11:03.668Z,97997.27
2023-05-02T18:13:32.554Z,98001.55
2023-05-02T18:16:01.640Z,98007.21
2023-05-02T18:18:29.839Z,98008.52
2023-05-02T18:21:00.775Z,98006.35
2023-05-02T18:23:29.526Z,98010.97
2023-05-02T18:25:57.646Z,98011.80
2023-05-02T18:28:25.915Z,98010.34
2023-05-02T18:30:54.089Z,98011.83
2023-05-02T18:33:22.216Z,98016.48
2023-05-02T18:35:54.197Z,98016.95
2023-05-02T18:38:22.509Z,98023.23
2023-05-02T18:40:53.334Z,98025.43
2023-05-02T18:43:23.961Z,98028.27
2023-05-02T18:45:52.043Z,98032.30
2023-05-02T18:48:20.843Z,98032.27
2023-05-02T18:50:49.070Z,98036.59
2023-05-02T18:53:17.099Z,98038.66
2023-05-02T18:55:45.209Z,98044.05
2023-05-02T18:58:13.307Z,98041.05
2023-05-02T19:00:50.905Z,98043.62
2023-05-02T19:03:19.512Z,98045.17
2023-05-02T19:05:51.465Z,98050.29
2023-05-02T19:08:19.507Z,98051.37
2023-05-02T19:10:47.900Z,98055.33
2023-05-02T19:13:16.989Z,98058.04
2023-05-02T19:15:45.319Z,98055.56
2023-05-02T19:18:14.392Z,98053.40
2023-05-02T19:20:42.942Z,98054.77
2023-05-02T19:23:19.006Z,98054.39
2023-05-02T19:25:47.992Z,98053.93
2023-05-02T19:28:17.013Z,98057.50
2023-05-02T19:30:45.473Z,98061.10
2023-05-02T19:33:16.324Z,98066.48
2023-05-02T19:35:44.477Z,98068.85
2023-05-02T19:38:12.755Z,98067.91
2023-05-02T19:40:43.356Z,98070.30
2023-05-02T19:43:11.607Z,98072.24
2023-05-02T19:45:39.872Z,98072.98
2023-05-02T19:48:08.323Z,98074.75
2023-05-02T19:50:37.891Z,98079.02
2023-05-02T19:53:09.036Z,98077.80
2023-05-02T19:55:37.484Z,98081.67
2023-05-02T19:58:08.183Z,98080.52
2023-05-02T20:00:36.663Z,98079.83
2023-05-02T20:03:05.623Z,98082.61
2023-05-02T20:05:34.045Z,98086.06
2023-05-02T20:08:02.512Z,98093.52
2023-05-02T20:10:31.463Z,98094.05
2023-05-02T20:12:59.630Z,98094.43
2023-05-02T20:15:27.959Z,98098.74
2023-05-02T20:17:58.130Z,98098.29
2023-05-02T20:20:26.665Z,98097.69
2023-05-02T20:22:55.251Z,98099.58
2023-05-02T20:25:24.019Z,98102.84
2023-05-02T20:27:52.818Z,98103.60
2023-05-02T20:30:21.163Z,98107.98
2023-05-02T20:32:50.391Z,98115.46
2023-05-02T20:35:18.678Z,98115.34
2023-05-02T20:37:46.915Z,98113.52
2023-05-02T20:40:15.107Z,98109.79
2023-05-02T20:42:43.951Z,98115.92
2023-05-02T20:45:12.712Z,98114.35
2023-05-02T20:47:41.064Z,98118.31
2023-05-02T20:50:09.653Z,98118.87
2023-05-02T20:52:39.107Z,98120.59
2023-05-02T20:55:08.160Z,98126.05
2023-05-02T20:57:36.284Z,98122.66
2023-05-02T21:00:05.357Z,98123.48
2023-05-02T21:02:33.691Z,98121.93
2023-05-02T21:05:02.061Z,98123.52
2023-05-02T21:07:30.237Z,98124.61
2023-05-02T21:09:58.718Z,98128.86
2023-05-02T21:12:26.773Z,98135.30
2023-05-02T21:14:54.986Z,98140.83
2023-05-02T21:17:23.243Z,98142.05
2023-05-02T21:19:53.941Z,98142.92
2023-05-02T21:22:22.189Z,98145.30
2023-05-02T21:24:51.060Z,98147.19
2023-05-02T21:27:19.474Z,98145.48
2023-05-02T21:29:47.995Z,98147.63
2023-05-02T21:32:16.273Z,98152.85
2023-05-02T21:34:44.342Z,98152.12
2023-05-02T21:37:12.632Z,98152.42
2023-05-02T21:39:40.826Z,98153.02
2023-05-02T21:42:08.823Z,98155.17
2023-05-02T21:44:37.227Z,98158.30
2023-05-02T21:47:05.399Z,98159.02
2023-05-02T21:49:33.484Z,98168.61
2023-05-02T21:52:03.513Z,98171.02
2023-05-02T21:54:32.656Z,98175.35
2023-05-02T21:57:02.912Z,98181.41
2023-05-02T21:59:31.438Z,98176.52
2023-05-02T22:01:59.760Z,98177.09
2023-05-02T22:04:28.266Z,98180.48
2023-05-02T22:06:56.645Z,98180.90
2023-05-02T22:09:25.426Z,98185.90
2023-05-02T22:11:53.899Z,98189.09
2023-05-02T22:14:30.179Z,98187.92
2023-05-02T22:17:05.502Z,98183.39
2023-05-02T22:19:34.224Z,98183.81
2023-05-02T22:22:02.464Z,98183.91
2023-05-02T22:24:31.255Z,98185.66
2023-05-02T22:26:59.298Z,98191.92
2023-05-02T22:29:27.757Z,98194.05
2023-05-02T22:31:56.157Z,98194.21
2023-05-02T22:34:24.490Z,98192.53
2023-05-02T22:36:52.972Z,98199.71
2023-05-02T22:39:21.716Z,98198.77
2023-05-02T22:41:49.896Z,98201.13
2023-05-02T22:44:18.085Z,98201.58
2023-05-02T22:46:46.277Z,98202.48
2023-05-02T22:49:14.520Z,98203.01
2023-05-02T22:51:42.582Z,98206.41
2023-05-02T22:54:10.673Z,98206.20
2023-05-02T22:56:38.736Z,98207.31
2023-05-02T22:59:07.011Z,98205.44
2023-05-02T23:01:35.302Z,98206.07
2023-05-02T23:04:03.709Z,98206.23
2023-05-02T23:06:32.038Z,98203.82
2023-05-02T23:09:00.420Z,98206.33
2023-05-02T23:11:29.403Z,98211.53
2023-05-02T23:13:57.580Z,98208.23
2023-05-02T23:16:25.844Z,98203.51
2023-05-02T23:18:54.044Z,98208.54
2023-05-02T23:21:22.305Z,98208.48
2023-05-02T23:23:50.395Z,98214.56
2023-05-02T23:26:18.858Z,98212.30
2023-05-02T23:28:47.027Z,98214.05
2023-05-02T23:31:15.236Z,98210.89
2023-05-02T23:33:43.707Z,98215.52
2023-05-02T23:36:11.803Z,98210.30
2023-05-02T23:38:40.592Z,98217.48
2023-05-02T23:41:09.023Z,98223.35
2023-05-02T23:43:37.295Z,98224.98
2023-05-02T23:46:06.374Z,98221.94
2023-05-02T23:48:34.651Z,98218.29
2023-05-02T23:51:02.693Z,98218.46
2023-05-02T23:53:30.890Z,98218.20
2023-05-02T23:55:59.140Z,98217.45
2023-05-02T23:58:27.270Z,98218.80
